TimeMDT,TemperatureF,Dew PointF,Humidity,Sea Level PressureIn,VisibilityMPH,Wind Direction,Wind SpeedMPH,Gust SpeedMPH,PrecipitationIn,Events,Conditions,WindDirDegrees,DateUTC
12:53 AM,71.1,27.0,19,29.73,10.0,Calm,Calm,-,N/A,,Clear,0,2013-07-11 06:53:00
1:53 AM,73.0,24.1,16,29.71,10.0,North,8.1,-,N/A,,Clear,10,2013-07-11 07:53:00
2:53 AM,70.0,24.1,18,29.71,10.0,NNE,5.8,-,N/A,,Clear,20,2013-07-11 08:53:00
3:53 AM,69.1,23.0,18,29.70,10.0,NNE,5.8,-,N/A,,Clear,20,2013-07-11 09:53:00
4:53 AM,69.1,25.0,19,29.73,10.0,East,11.5,-,N/A,,Clear,90,2013-07-11 10:53:00
5:53 AM,72.0,23.0,16,29.72,10.0,West,4.6,-,N/A,,Clear,260,2013-07-11 11:53:00
6:53 AM,70.0,25.0,18,29.76,10.0,NNW,5.8,-,N/A,,Clear,340,2013-07-11 12:53:00
7:53 AM,78.1,28.9,17,29.73,10.0,NE,4.6,-,N/A,,Clear,50,2013-07-11 13:53:00
8:53 AM,82.0,33.1,17,29.75,10.0,Variable,4.6,-,N/A,,Clear,0,2013-07-11 14:53:00
9:53 AM,84.0,39.9,21,29.77,10.0,ESE,8.1,-,N/A,,Clear,120,2013-07-11 15:53:00
10:53 AM,84.9,39.9,20,29.75,10.0,Variable,5.8,-,N/A,,Clear,0,2013-07-11 16:53:00
11:53 AM,89.1,39.9,18,29.73,10.0,ESE,8.1,17.3,N/A,,Clear,120,2013-07-11 17:53:00
12:53 PM,90.0,36.0,15,29.74,10.0,SSE,11.5,16.1,N/A,,Clear,160,2013-07-11 18:53:00
1:53 PM,91.0,34.0,13,29.71,10.0,South,10.4,-,N/A,,Clear,190,2013-07-11 19:53:00
2:53 PM,90.0,35.1,14,29.72,10.0,SSE,12.7,18.4,N/A,,Scattered Clouds,160,2013-07-11 20:53:00
3:53 PM,87.1,39.9,19,29.73,10.0,SSE,4.6,-,N/A,,Scattered Clouds,160,2013-07-11 21:53:00
4:53 PM,88.0,37.0,16,29.70,10.0,WSW,15.0,19.6,N/A,,Clear,240,2013-07-11 22:53:00
5:53 PM,86.0,39.0,19,29.69,10.0,SW,13.8,-,N/A,,Overcast,220,2013-07-11 23:53:00
6:31 PM,80.6,50.0,34,30.03,10.0,West,24.2,39.1,N/A,,Overcast,280,2013-07-12 00:31:00
6:53 PM,78.1,51.1,39,29.81,10.0,SW,17.3,27.6,N/A,,Overcast,220,2013-07-12 00:53:00
7:19 PM,73.4,53.6,50,30.11,4.0,SW,13.8,25.3,0.01,Rain,Rain,230,2013-07-12 01:19:00
7:39 PM,71.6,53.6,53,30.13,9.0,Variable,3.5,-,0.02,Rain-Thunderstorm,Rain,0,2013-07-12 01:39:00
7:53 PM,70.0,55.9,61,29.85,10.0,NNW,4.6,-,0.02,Rain,Light Rain,340,2013-07-12 01:53:00
8:53 PM,69.1,55.9,63,29.80,10.0,ENE,6.9,-,0.00,,Mostly Cloudy,70,2013-07-12 02:53:00
9:53 PM,66.9,55.9,68,29.81,10.0,NNW,6.9,-,N/A,,Partly Cloudy,340,2013-07-12 03:53:00
10:53 PM,66.0,57.0,73,29.83,10.0,SE,5.8,-,N/A,,Clear,140,2013-07-12 04:53:00
11:53 PM,66.0,57.0,73,29.81,10.0,Calm,Calm,-,N/A,,Clear,0,2013-07-12 05:53:00